createdAt,value
2024-03-14T00:02:54.488Z,80.50
2024-03-14T00:06:36.682Z,80.60
2024-03-14T00:10:18.869Z,80.60
2024-03-14T00:14:00.867Z,80.60
2024-03-14T00:17:42.703Z,80.70
2024-03-14T00:21:24.574Z,80.80
2024-03-14T00:25:10.959Z,80.80
2024-03-14T00:28:53.632Z,80.80
2024-03-14T00:32:36.117Z,80.90
2024-03-14T00:36:17.964Z,80.90
2024-03-14T00:39:59.806Z,81.00
2024-03-14T00:43:41.952Z,81.10
2024-03-14T00:47:23.760Z,80.90
2024-03-14T00:51:08.612Z,81.00
2024-03-14T00:54:50.453Z,81.00
2024-03-14T00:58:32.615Z,81.00
2024-03-14T01:02:15.207Z,81.00
2024-03-14T01:05:59.136Z,81.00
2024-03-14T01:09:42.186Z,81.10
2024-03-14T01:13:26.667Z,81.00
2024-03-14T01:17:08.725Z,81.00
2024-03-14T01:20:50.524Z,80.90
2024-03-14T01:24:32.433Z,80.90
2024-03-14T01:28:14.359Z,80.90
2024-03-14T01:31:56.148Z,80.90
2024-03-14T01:35:38.101Z,81.00
2024-03-14T01:39:22.441Z,80.90
2024-03-14T01:43:04.521Z,80.90
2024-03-14T01:46:46.343Z,80.90
2024-03-14T01:50:28.110Z,80.90
2024-03-14T01:54:13.395Z,81.00
2024-03-14T01:57:55.703Z,81.00
2024-03-14T02:01:37.469Z,81.00
2024-03-14T02:05:47.076Z,80.90
2024-03-14T02:09:29.888Z,81.20
2024-03-14T02:13:11.766Z,81.10
2024-03-14T02:16:53.529Z,81.10
2024-03-14T02:20:35.299Z,81.10
2024-03-14T02:24:18.405Z,81.10
2024-03-14T02:28:00.484Z,81.10
2024-03-14T02:31:42.277Z,81.20
2024-03-14T02:35:24.105Z,81.20
2024-03-14T02:39:07.804Z,81.30
2024-03-14T02:42:50.467Z,81.30
2024-03-14T02:46:32.215Z,81.20
2024-03-14T02:50:14.044Z,81.30
2024-03-14T02:53:55.885Z,81.20
2024-03-14T02:57:37.822Z,81.20
2024-03-14T03:01:19.734Z,81.30
2024-03-14T03:05:01.585Z,81.20
2024-03-14T03:08:44.043Z,81.20
2024-03-14T03:12:25.972Z,81.20
2024-03-14T03:16:07.784Z,81.30
2024-03-14T03:19:50.539Z,81.30
2024-03-14T03:23:32.790Z,81.30
2024-03-14T03:27:15.423Z,81.30
2024-03-14T03:31:00.019Z,81.30
2024-03-14T03:34:41.920Z,81.30
2024-03-14T03:38:23.680Z,81.30
2024-03-14T03:42:05.561Z,81.30
2024-03-14T03:45:47.394Z,81.30
2024-03-14T03:49:29.320Z,81.30
2024-03-14T03:53:11.956Z,81.30
2024-03-14T03:56:55.589Z,81.30
2024-03-14T04:00:45.112Z,81.30
2024-03-14T04:04:27.753Z,81.40
2024-03-14T04:08:09.711Z,81.40
2024-03-14T04:11:51.466Z,81.30
2024-03-14T04:15:34.405Z,81.40
2024-03-14T04:19:16.310Z,81.40
2024-03-14T04:22:59.534Z,81.30
2024-03-14T04:26:42.899Z,81.30
2024-03-14T04:30:25.206Z,81.30
2024-03-14T04:34:07.160Z,81.30
2024-03-14T04:37:50.697Z,81.30
2024-03-14T04:41:32.707Z,81.30
2024-03-14T04:45:22.297Z,81.30
2024-03-14T04:49:04.437Z,81.30
2024-03-14T04:52:46.741Z,81.30
2024-03-14T04:56:29.538Z,81.20
2024-03-14T05:00:32.983Z,81.20
2024-03-14T05:04:15.034Z,81.20
2024-03-14T05:07:56.789Z,81.20
2024-03-14T05:11:38.733Z,81.10
2024-03-14T05:15:20.984Z,81.20
2024-03-14T05:19:05.521Z,81.20
2024-03-14T05:22:47.368Z,81.20
2024-03-14T05:26:29.210Z,81.20
2024-03-14T05:30:14.278Z,81.30
2024-03-14T05:33:56.877Z,81.30
2024-03-14T05:37:38.896Z,81.30
2024-03-14T05:41:20.679Z,81.30
2024-03-14T05:45:03.748Z,81.30
2024-03-14T05:48:45.560Z,81.30
2024-03-14T05:52:27.381Z,81.30
2024-03-14T05:56:10.121Z,81.20
2024-03-14T05:59:52.933Z,81.30
2024-03-14T06:03:35.039Z,81.30
2024-03-14T06:07:18.143Z,81.20
2024-03-14T06:11:03.548Z,81.20
2024-03-14T06:14:46.295Z,81.20
2024-03-14T06:18:28.496Z,81.20
2024-03-14T06:22:10.648Z,81.10
2024-03-14T06:25:52.600Z,81.10
2024-03-14T06:29:34.436Z,81.10
2024-03-14T06:33:17.527Z,81.10
2024-03-14T06:37:00.231Z,81.10
2024-03-14T06:40:41.971Z,81.10
2024-03-14T06:44:24.389Z,81.10
2024-03-14T06:48:06.809Z,81.00
2024-03-14T06:51:51.443Z,81.00
2024-03-14T06:55:35.898Z,81.00
2024-03-14T06:59:18.106Z,81.10
2024-03-14T07:03:00.959Z,81.10
2024-03-14T07:06:45.728Z,81.10
2024-03-14T07:10:27.526Z,81.10
2024-03-14T07:14:10.717Z,81.10
2024-03-14T07:17:53.623Z,81.10
2024-03-14T07:21:38.189Z,81.10
2024-03-14T07:25:20.486Z,81.10
2024-03-14T07:29:06.941Z,81.10
2024-03-14T07:32:48.968Z,81.10
2024-03-14T07:36:31.730Z,81.10
2024-03-14T07:40:14.264Z,81.00
2024-03-14T07:44:09.936Z,81.00
2024-03-14T07:48:02.341Z,80.90
2024-03-14T07:51:44.381Z,80.90
2024-03-14T07:55:26.262Z,80.90
2024-03-14T07:59:08.052Z,81.00
2024-03-14T08:02:56.770Z,81.00
2024-03-14T08:06:40.892Z,81.00
2024-03-14T08:10:23.082Z,81.10
2024-03-14T08:14:08.103Z,81.20
2024-03-14T08:17:50.174Z,81.20
2024-03-14T08:21:34.415Z,81.20
2024-03-14T08:25:20.277Z,81.20
2024-03-14T08:29:03.373Z,81.10
2024-03-14T08:32:45.224Z,81.10
2024-03-14T08:36:28.690Z,81.10
2024-03-14T08:40:11.136Z,81.10
2024-03-14T08:43:55.501Z,81.00
2024-03-14T08:47:37.893Z,81.10
2024-03-14T08:51:19.981Z,81.10
2024-03-14T08:55:06.302Z,81.10
2024-03-14T08:58:48.676Z,81.00
2024-03-14T09:02:33.812Z,80.90
2024-03-14T09:06:16.492Z,80.80
2024-03-14T09:09:59.645Z,80.90
2024-03-14T09:13:41.668Z,80.80
2024-03-14T09:17:23.454Z,80.80
2024-03-14T09:21:07.251Z,80.70
2024-03-14T09:24:49.032Z,80.60
2024-03-14T09:28:30.903Z,80.30
2024-03-14T09:32:12.678Z,80.20
2024-03-14T09:35:54.598Z,80.30
2024-03-14T09:39:37.498Z,80.50
2024-03-14T09:43:22.303Z,80.70
2024-03-14T09:47:22.604Z,80.60
2024-03-14T09:51:09.002Z,80.30
2024-03-14T09:54:52.518Z,80.20
2024-03-14T09:58:34.516Z,80.00
2024-03-14T10:02:19.114Z,79.80
2024-03-14T10:06:01.079Z,79.80
2024-03-14T10:09:44.473Z,79.50
2024-03-14T10:13:29.173Z,79.50
2024-03-14T10:17:15.107Z,79.30
2024-03-14T10:20:58.639Z,79.20
2024-03-14T10:24:40.594Z,78.60
2024-03-14T10:28:29.361Z,78.90
2024-03-14T10:32:11.845Z,79.00
2024-03-14T10:36:03.158Z,78.90
2024-03-14T10:39:56.111Z,78.50
2024-03-14T10:43:43.859Z,78.50
2024-03-14T10:47:27.879Z,78.60
2024-03-14T10:51:11.190Z,78.10
2024-03-14T10:54:55.204Z,78.50
2024-03-14T10:58:38.897Z,78.50
2024-03-14T11:02:23.438Z,78.30
2024-03-14T11:06:13.288Z,78.00
2024-03-14T11:09:59.721Z,78.30
2024-03-14T11:13:49.191Z,78.20
2024-03-14T11:17:32.974Z,78.40
2024-03-14T11:21:16.340Z,78.60
2024-03-14T11:24:58.704Z,78.60
2024-03-14T11:28:42.546Z,78.60
2024-03-14T11:32:26.359Z,78.50
2024-03-14T11:36:11.961Z,78.60
2024-03-14T11:39:54.102Z,78.70
2024-03-14T11:43:36.405Z,78.90
2024-03-14T11:47:43.555Z,78.90
2024-03-14T11:51:25.754Z,78.90
2024-03-14T11:55:12.897Z,78.90
2024-03-14T11:58:55.677Z,79.00
2024-03-14T12:02:38.430Z,79.10
2024-03-14T12:06:21.368Z,78.80
2024-03-14T12:10:05.596Z,78.60
2024-03-14T12:13:56.317Z,78.50
2024-03-14T12:17:39.276Z,78.20
2024-03-14T12:21:21.336Z,78.00
2024-03-14T12:25:06.523Z,77.70
2024-03-14T12:28:52.201Z,77.40
2024-03-14T12:32:36.340Z,77.70
2024-03-14T12:36:18.930Z,77.80
2024-03-14T12:40:01.859Z,77.90
2024-03-14T12:43:46.749Z,77.90
2024-03-14T12:47:29.579Z,77.80
2024-03-14T12:51:19.984Z,77.90
2024-03-14T12:55:14.694Z,78.00
2024-03-14T12:58:58.729Z,78.00
2024-03-14T13:02:43.886Z,78.00
2024-03-14T13:06:28.308Z,78.20
2024-03-14T13:10:20.860Z,78.20
2024-03-14T13:14:16.809Z,78.30
2024-03-14T13:17:58.897Z,78.40
2024-03-14T13:21:44.888Z,78.40
2024-03-14T13:25:26.697Z,78.40
2024-03-14T13:29:13.031Z,78.60
2024-03-14T13:32:58.262Z,78.70
2024-03-14T13:36:42.012Z,78.70
2024-03-14T13:40:24.487Z,78.90
2024-03-14T13:44:08.357Z,79.10
2024-03-14T13:47:52.570Z,79.10
2024-03-14T13:51:35.071Z,79.10
2024-03-14T13:55:26.024Z,79.20
2024-03-14T13:59:11.746Z,79.20
2024-03-14T14:02:59.860Z,79.30
2024-03-14T14:06:42.511Z,79.40
2024-03-14T14:10:27.385Z,79.70
2024-03-14T14:14:15.771Z,79.70
2024-03-14T14:17:57.906Z,79.60
2024-03-14T14:21:43.537Z,79.70
2024-03-14T14:25:30.157Z,79.90
2024-03-14T14:29:11.917Z,79.80
2024-03-14T14:32:56.522Z,80.00
2024-03-14T14:36:41.675Z,80.00
2024-03-14T14:40:24.186Z,80.20
2024-03-14T14:44:05.962Z,80.20
2024-03-14T14:47:48.268Z,80.30
2024-03-14T14:51:34.202Z,80.30
2024-03-14T14:55:19.218Z,80.40
2024-03-14T14:59:01.076Z,80.40
2024-03-14T15:02:43.816Z,80.40
2024-03-14T15:06:25.742Z,80.50
2024-03-14T15:10:14.501Z,80.80
2024-03-14T15:13:56.561Z,80.70
2024-03-14T15:17:39.704Z,81.00
2024-03-14T15:21:21.823Z,81.20
2024-03-14T15:25:05.272Z,81.50
2024-03-14T15:28:47.378Z,81.40
2024-03-14T15:32:31.000Z,81.40
2024-03-14T15:36:16.591Z,81.70
2024-03-14T15:40:04.910Z,81.70
2024-03-14T15:43:46.709Z,82.00
2024-03-14T15:47:28.505Z,82.20
2024-03-14T15:51:16.685Z,82.20
2024-03-14T15:54:58.816Z,82.50
2024-03-14T15:58:45.249Z,82.30
2024-03-14T16:02:27.118Z,82.60
2024-03-14T16:06:09.391Z,82.80
2024-03-14T16:09:51.405Z,82.90
2024-03-14T16:13:33.900Z,82.90
2024-03-14T16:17:17.217Z,82.90
2024-03-14T16:20:59.112Z,83.00
2024-03-14T16:24:41.369Z,83.40
2024-03-14T16:28:23.223Z,83.50
2024-03-14T16:32:07.116Z,83.40
2024-03-14T16:35:48.957Z,83.40
2024-03-14T16:39:30.842Z,83.50
2024-03-14T16:43:15.760Z,83.90
2024-03-14T16:46:58.568Z,83.50
2024-03-14T16:50:40.801Z,83.60
2024-03-14T16:54:27.188Z,83.70
2024-03-14T16:58:11.815Z,83.80
2024-03-14T17:01:53.757Z,83.90
2024-03-14T17:05:35.940Z,84.00
2024-03-14T17:09:18.170Z,84.00
2024-03-14T17:13:03.324Z,83.90
2024-03-14T17:16:55.119Z,84.10
2024-03-14T17:20:40.967Z,84.10
2024-03-14T17:24:22.946Z,84.10
2024-03-14T17:28:06.000Z,84.20
2024-03-14T17:31:50.041Z,84.40
2024-03-14T17:35:33.982Z,84.50
2024-03-14T17:39:17.745Z,84.40
2024-03-14T17:42:59.586Z,84.50
2024-03-14T17:46:42.631Z,84.60
2024-03-14T17:50:32.372Z,85.00
2024-03-14T17:54:16.558Z,84.80
2024-03-14T17:58:01.053Z,85.00
2024-03-14T18:01:51.608Z,85.10
2024-03-14T18:05:34.853Z,84.80
2024-03-14T18:09:18.681Z,85.00
2024-03-14T18:13:00.721Z,84.90
2024-03-14T18:16:42.935Z,85.10
2024-03-14T18:20:24.815Z,85.10
2024-03-14T18:24:09.997Z,85.00
2024-03-14T18:27:54.809Z,84.90
2024-03-14T18:31:39.585Z,85.10
2024-03-14T18:35:24.032Z,84.90
2024-03-14T18:39:14.936Z,84.90
2024-03-14T18:43:00.689Z,84.70
2024-03-14T18:46:42.785Z,84.70
2024-03-14T18:50:24.854Z,84.80
2024-03-14T18:54:09.335Z,84.80
2024-03-14T18:57:53.003Z,84.70
2024-03-14T19:01:35.028Z,84.80
2024-03-14T19:05:19.635Z,84.70
2024-03-14T19:09:01.757Z,84.70
2024-03-14T19:12:47.352Z,84.60
2024-03-14T19:16:31.341Z,84.60
2024-03-14T19:20:13.772Z,84.50
2024-03-14T19:24:02.089Z,84.60
2024-03-14T19:27:47.112Z,84.50
2024-03-14T19:31:37.016Z,84.40
2024-03-14T19:35:21.884Z,84.30
2024-03-14T19:39:05.223Z,84.30
2024-03-14T19:42:48.520Z,84.30
2024-03-14T19:46:35.442Z,84.30
2024-03-14T19:50:18.801Z,84.40
2024-03-14T19:54:02.528Z,84.40
2024-03-14T19:57:44.632Z,84.30
2024-03-14T20:01:26.650Z,84.40
2024-03-14T20:05:09.930Z,84.30
2024-03-14T20:08:53.354Z,84.30
2024-03-14T20:12:35.532Z,84.40
2024-03-14T20:16:20.710Z,84.40
2024-03-14T20:20:12.058Z,84.50
2024-03-14T20:23:54.942Z,84.50
2024-03-14T20:27:41.712Z,84.50
2024-03-14T20:31:28.436Z,84.50
2024-03-14T20:35:12.816Z,84.40
2024-03-14T20:39:06.159Z,84.40
2024-03-14T20:42:51.527Z,84.40
2024-03-14T20:46:34.514Z,84.30
2024-03-14T20:50:21.770Z,84.30
2024-03-14T20:54:06.032Z,84.30
2024-03-14T20:58:03.772Z,84.30
2024-03-14T21:01:49.188Z,84.30
2024-03-14T21:05:31.021Z,84.20
2024-03-14T21:09:14.461Z,84.20
2024-03-14T21:12:56.785Z,84.30
2024-03-14T21:16:39.654Z,84.30
2024-03-14T21:20:25.277Z,84.30
2024-03-14T21:24:16.978Z,84.30
2024-03-14T21:28:02.614Z,84.30
2024-03-14T21:31:47.191Z,84.30
2024-03-14T21:35:29.888Z,84.30
2024-03-14T21:39:12.063Z,84.30
2024-03-14T21:42:56.705Z,84.20
2024-03-14T21:46:40.773Z,84.20
2024-03-14T21:50:22.659Z,84.20
2024-03-14T21:54:07.898Z,84.20
2024-03-14T21:57:57.405Z,84.20
2024-03-14T22:01:42.576Z,84.20
2024-03-14T22:05:26.640Z,84.30
2024-03-14T22:09:09.165Z,84.20
2024-03-14T22:12:53.021Z,84.30
2024-03-14T22:16:35.056Z,84.20
2024-03-14T22:20:21.035Z,84.20
2024-03-14T22:24:03.720Z,84.20
2024-03-14T22:27:45.714Z,84.10
2024-03-14T22:31:27.709Z,84.10
2024-03-14T22:35:11.332Z,84.10
2024-03-14T22:38:53.196Z,84.00
2024-03-14T22:42:36.583Z,84.00
2024-03-14T22:46:18.982Z,84.00
2024-03-14T22:50:01.214Z,84.10
2024-03-14T22:53:43.086Z,84.20
2024-03-14T22:57:24.919Z,84.20
2024-03-14T23:01:11.931Z,84.20
2024-03-14T23:04:56.599Z,84.10
2024-03-14T23:08:38.664Z,84.20
2024-03-14T23:12:21.121Z,84.20
2024-03-14T23:16:06.519Z,84.10
2024-03-14T23:19:48.737Z,83.90
2024-03-14T23:23:30.506Z,84.10
2024-03-14T23:27:12.721Z,84.20
2024-03-14T23:30:54.862Z,84.20
2024-03-14T23:34:36.699Z,84.20
2024-03-14T23:38:19.560Z,84.20
2024-03-14T23:42:02.548Z,84.20
2024-03-14T23:45:45.399Z,84.20
2024-03-14T23:49:27.339Z,84.10
2024-03-14T23:53:10.293Z,84.10
2024-03-14T23:56:52.115Z,84.10
